Topsfield, Maine
Current Conditions -  °F | °C
As of 1:53 PM on Friday 31 Oct 2014 (Local Time) from KMLT Reporting Station
Overcast Overcast  
Wind Chill: 47°   Ceiling: 4700
Heat Index: 47°   Visibility: 10mi
Dew Point: 30°   Wind: 0mph
Humidity: 52%   Direction: NA
Pressure: 30.03"   Gusts: NA
Location:  45.42°N, 67.73°W
Report Text: KMLT 311753Z AUTO 00000KT 10SM OVC047 08/M01 A3003 RMK AO2 SLP178 T00831011 10083 20028 56008
Loading
Personal Weather Stations






























Interactive Weather Map
Tropical Storm Tracking
New forecast layout! Learn more

10-Day Weather Forecast

Advertisements
Track Severe Weather on mobile